createdAt,value
2023-04-07T06:16:27.022Z,88.34
2023-04-07T06:18:53.899Z,89.66
2023-04-07T06:21:20.885Z,89.90
2023-04-07T06:23:47.997Z,90.26
2023-04-07T06:26:14.979Z,90.47
2023-04-07T06:28:41.824Z,90.55
2023-04-07T06:31:09.257Z,89.01
2023-04-07T06:33:36.247Z,89.43
2023-04-07T06:36:03.102Z,89.12
2023-04-07T06:38:29.968Z,89.70
2023-04-07T06:40:56.895Z,91.65
2023-04-07T06:43:23.823Z,89.91
2023-04-07T06:45:50.679Z,88.98
2023-04-07T06:48:17.552Z,89.03
2023-04-07T06:50:49.527Z,89.93
2023-04-07T06:53:16.460Z,91.31
2023-04-07T06:55:43.412Z,92.83
2023-04-07T06:58:10.638Z,93.58
2023-04-07T07:00:37.515Z,92.69
2023-04-07T07:03:04.539Z,93.53
2023-04-07T07:05:31.524Z,93.17
2023-04-07T07:07:58.535Z,92.29
2023-04-07T07:10:25.418Z,93.40
2023-04-07T07:12:52.489Z,94.55
2023-04-07T07:15:19.379Z,96.22
2023-04-07T07:17:46.254Z,95.49
2023-04-07T07:20:13.192Z,95.22
2023-04-07T07:22:40.054Z,93.83
2023-04-07T07:25:07.333Z,94.31
2023-04-07T07:27:34.142Z,96.10
2023-04-07T07:30:01.441Z,95.61
2023-04-07T07:32:28.300Z,96.32
2023-04-07T07:34:55.219Z,95.21
2023-04-07T07:37:22.192Z,95.34
2023-04-07T07:39:49.806Z,94.67
2023-04-07T07:42:16.761Z,95.76
2023-04-07T07:44:43.624Z,95.70
2023-04-07T07:47:10.529Z,96.29
2023-04-07T07:49:37.800Z,95.66
2023-04-07T07:52:04.620Z,95.55
2023-04-07T07:54:31.464Z,95.16
2023-04-07T07:56:58.303Z,93.88
2023-04-07T07:59:25.101Z,93.82
2023-04-07T08:01:51.900Z,93.83
2023-04-07T08:04:19.001Z,93.62
2023-04-07T08:06:46.129Z,93.82
2023-04-07T08:09:13.130Z,93.49
2023-04-07T08:11:39.948Z,94.30
2023-04-07T08:14:08.641Z,94.04
2023-04-07T08:16:36.862Z,93.79
2023-04-07T08:19:03.731Z,93.39
2023-04-07T08:21:31.852Z,93.09
2023-04-07T08:23:58.856Z,92.11
2023-04-07T08:26:25.953Z,91.58
2023-04-07T08:28:53.409Z,91.40
2023-04-07T08:31:20.602Z,91.04
2023-04-07T08:33:47.720Z,91.17
2023-04-07T08:36:14.796Z,90.11
2023-04-07T08:38:41.665Z,89.77
2023-04-07T08:41:13.623Z,90.04
2023-04-07T08:43:41.429Z,88.90
2023-04-07T08:46:11.605Z,88.57
2023-04-07T08:48:38.972Z,86.26
2023-04-07T08:51:08.514Z,86.09
2023-04-07T08:53:44.444Z,85.58
2023-04-07T08:56:14.877Z,86.28
2023-04-07T08:58:41.980Z,87.24
2023-04-07T09:01:09.791Z,87.21
2023-04-07T09:03:36.762Z,86.57
2023-04-07T09:06:04.420Z,84.08
2023-04-07T09:08:31.437Z,84.65
2023-04-07T09:10:58.903Z,84.46
2023-04-07T09:13:26.057Z,82.84
2023-04-07T09:15:52.940Z,81.59
2023-04-07T09:18:20.286Z,81.05
2023-04-07T09:21:04.068Z,80.22
2023-04-07T09:23:35.330Z,80.69
2023-04-07T09:26:25.077Z,81.33
2023-04-07T09:28:57.711Z,80.43
2023-04-07T09:31:28.366Z,80.27
2023-04-07T09:33:55.721Z,79.12
2023-04-07T09:36:25.195Z,79.46
2023-04-07T09:38:54.128Z,78.72
2023-04-07T09:41:21.685Z,79.05
2023-04-07T09:43:49.021Z,78.73
2023-04-07T09:46:18.277Z,78.00
2023-04-07T09:48:46.624Z,77.90
2023-04-07T09:51:18.039Z,77.34
2023-04-07T09:53:46.693Z,77.77
2023-04-07T09:56:16.475Z,76.51
2023-04-07T09:58:45.296Z,77.33
2023-04-07T10:01:13.124Z,76.03
2023-04-07T10:03:40.367Z,77.19
2023-04-07T10:06:07.848Z,74.05
2023-04-07T10:08:37.272Z,75.71
2023-04-07T10:11:05.715Z,75.11
2023-04-07T10:13:37.072Z,75.41
2023-04-07T10:16:06.138Z,75.08
2023-04-07T10:18:37.039Z,75.22
2023-04-07T10:21:07.643Z,75.24
2023-04-07T10:23:49.794Z,74.30
2023-04-07T10:26:19.465Z,72.50
2023-04-07T10:28:50.193Z,73.97
2023-04-07T10:31:17.518Z,74.85
2023-04-07T10:33:49.100Z,74.70
2023-04-07T10:36:21.108Z,74.92
2023-04-07T10:39:09.701Z,72.43
2023-04-07T10:41:40.679Z,73.23
2023-04-07T10:44:09.256Z,71.34
2023-04-07T10:46:52.085Z,71.15
2023-04-07T10:49:19.301Z,71.92
2023-04-07T10:52:11.991Z,74.67
2023-04-07T10:54:43.059Z,74.17
2023-04-07T10:57:13.218Z,74.37
2023-04-07T11:00:02.966Z,73.69
2023-04-07T11:02:30.603Z,72.35
2023-04-07T11:04:57.581Z,73.84
2023-04-07T11:07:44.361Z,74.66
2023-04-07T11:10:16.148Z,73.80
2023-04-07T11:12:43.967Z,74.90
2023-04-07T11:15:18.129Z,74.00
2023-04-07T11:17:44.984Z,71.48
2023-04-07T11:20:11.971Z,71.07
2023-04-07T11:22:39.223Z,70.58
2023-04-07T11:25:21.000Z,72.12
2023-04-07T11:27:47.958Z,70.20
2023-04-07T11:30:16.198Z,70.93
2023-04-07T11:32:43.121Z,73.45
2023-04-07T11:35:10.661Z,71.93
2023-04-07T11:37:37.724Z,72.82
2023-04-07T11:40:04.944Z,73.64
2023-04-07T11:42:36.075Z,72.23
2023-04-07T11:45:03.123Z,71.63
2023-04-07T11:47:39.490Z,70.32
2023-04-07T11:50:07.712Z,70.21
2023-04-07T11:52:48.419Z,69.45
2023-04-07T11:55:23.014Z,68.70
2023-04-07T11:57:53.778Z,69.53
2023-04-07T12:00:21.277Z,70.18
2023-04-07T12:02:48.335Z,69.67
2023-04-07T12:05:15.811Z,69.29
2023-04-07T12:07:53.275Z,68.75
2023-04-07T12:10:21.923Z,69.88
2023-04-07T12:12:49.396Z,69.83
2023-04-07T12:15:16.824Z,70.62
2023-04-07T12:17:47.857Z,70.93
2023-04-07T12:20:16.052Z,70.61
2023-04-07T12:22:43.162Z,71.74
2023-04-07T12:25:10.061Z,71.68
2023-04-07T12:27:43.320Z,72.65
2023-04-07T12:30:11.704Z,74.83
2023-04-07T12:32:39.303Z,76.15
2023-04-07T12:35:06.615Z,75.26
2023-04-07T12:37:33.658Z,73.26
2023-04-07T12:40:00.782Z,74.95
2023-04-07T12:42:28.222Z,73.35
2023-04-07T12:44:55.183Z,74.29
2023-04-07T12:47:22.267Z,74.46
2023-04-07T12:49:51.107Z,74.19
2023-04-07T12:52:17.988Z,73.59
2023-04-07T12:54:45.534Z,72.45
2023-04-07T12:57:12.808Z,73.18
2023-04-07T12:59:39.672Z,72.38
2023-04-07T13:02:07.050Z,72.33
2023-04-07T13:04:35.545Z,72.32
2023-04-07T13:07:03.381Z,72.48
2023-04-07T13:09:30.355Z,73.63
2023-04-07T13:11:58.053Z,73.08
2023-04-07T13:14:25.131Z,72.07
2023-04-07T13:16:52.211Z,71.20
2023-04-07T13:19:19.109Z,71.90
2023-04-07T13:21:47.658Z,72.00
2023-04-07T13:24:15.235Z,70.96
2023-04-07T13:26:42.063Z,70.27
2023-04-07T13:29:08.903Z,71.47
2023-04-07T13:31:36.007Z,71.58
2023-04-07T13:34:02.983Z,70.77
2023-04-07T13:36:30.284Z,70.10
2023-04-07T13:38:57.615Z,70.08
2023-04-07T13:41:24.496Z,69.91
2023-04-07T13:43:51.525Z,69.18
2023-04-07T13:48:48.301Z,71.42
2023-04-07T13:51:15.114Z,73.00
2023-04-07T13:53:41.929Z,72.88
2023-04-07T13:56:09.801Z,70.94
2023-04-07T13:58:36.852Z,68.57
2023-04-07T14:01:04.328Z,67.92
2023-04-07T14:03:32.180Z,68.90
2023-04-07T14:06:01.374Z,70.07
2023-04-07T14:08:28.401Z,69.60
2023-04-07T14:10:55.265Z,68.66
2023-04-07T14:13:22.303Z,68.04
2023-04-07T14:15:50.255Z,68.36
2023-04-07T14:18:17.769Z,68.59
2023-04-07T14:20:44.851Z,68.77
2023-04-07T14:23:12.602Z,67.48
2023-04-07T14:25:41.234Z,65.63
2023-04-07T14:28:08.335Z,66.46
2023-04-07T14:30:40.915Z,67.40
2023-04-07T14:33:08.421Z,66.38
2023-04-07T14:35:37.745Z,66.83
2023-04-07T14:38:04.814Z,67.20
2023-04-07T14:40:31.893Z,67.96
2023-04-07T14:45:29.252Z,69.43
2023-04-07T14:47:56.477Z,68.46
2023-04-07T14:50:23.988Z,69.55
2023-04-07T14:52:51.072Z,69.12
2023-04-07T14:55:18.403Z,68.99
2023-04-07T14:57:45.614Z,69.76
2023-04-07T15:00:12.935Z,70.27
2023-04-07T15:02:40.472Z,69.72
2023-04-07T15:05:08.042Z,70.09
2023-04-07T15:07:35.058Z,70.18
2023-04-07T15:10:01.904Z,70.47
2023-04-07T15:12:31.497Z,70.67
2023-04-07T15:14:58.469Z,71.66
2023-04-07T15:17:36.318Z,67.88
2023-04-07T15:20:03.695Z,69.57
2023-04-07T15:22:30.943Z,70.20
2023-04-07T15:24:57.733Z,68.45
2023-04-07T15:27:24.546Z,70.08
2023-04-07T15:29:51.434Z,70.73
2023-04-07T15:32:19.635Z,71.18
2023-04-07T15:34:47.539Z,70.03
2023-04-07T15:37:14.412Z,69.53
2023-04-07T15:39:41.257Z,70.14
2023-04-07T15:42:12.519Z,70.44
2023-04-07T15:44:40.164Z,69.99
2023-04-07T15:47:07.677Z,70.86
2023-04-07T15:49:37.439Z,69.85
2023-04-07T15:52:07.396Z,69.88
2023-04-07T15:54:34.176Z,69.48
2023-04-07T15:57:01.281Z,68.91
2023-04-07T15:59:31.129Z,70.01
2023-04-07T16:01:58.534Z,70.54
2023-04-07T16:04:25.525Z,70.54
2023-04-07T16:06:52.436Z,71.41
2023-04-07T16:09:19.246Z,72.17
2023-04-07T16:11:46.159Z,72.84
2023-04-07T16:14:13.000Z,73.28
2023-04-07T16:16:41.616Z,71.98
2023-04-07T16:19:08.695Z,72.34
2023-04-07T16:21:35.608Z,72.20
2023-04-07T16:24:03.043Z,73.72
2023-04-07T16:26:29.926Z,73.86
2023-04-07T16:28:56.713Z,74.07
2023-04-07T16:31:23.735Z,74.53
2023-04-07T16:33:51.592Z,74.70
2023-04-07T16:36:18.503Z,74.04
2023-04-07T16:38:45.467Z,72.32
2023-04-07T16:41:12.331Z,73.29
2023-04-07T16:43:39.181Z,72.75
2023-04-07T16:46:06.415Z,72.83
2023-04-07T16:48:33.463Z,73.53
2023-04-07T16:51:00.344Z,74.29
2023-04-07T16:53:27.158Z,74.77
2023-04-07T16:55:54.051Z,74.07
2023-04-07T16:58:21.152Z,74.52
2023-04-07T17:00:47.919Z,75.01
2023-04-07T17:03:15.914Z,74.36
2023-04-07T17:05:44.826Z,74.78
2023-04-07T17:08:11.843Z,74.84
2023-04-07T17:10:38.729Z,74.94
2023-04-07T17:13:05.637Z,74.53
2023-04-07T17:15:36.854Z,75.13
2023-04-07T17:18:03.987Z,75.03
2023-04-07T17:20:30.888Z,74.38
2023-04-07T17:22:57.702Z,75.20
2023-04-07T17:25:25.009Z,75.02
2023-04-07T17:27:51.836Z,75.62
2023-04-07T17:30:18.871Z,76.00
2023-04-07T17:32:45.781Z,75.29
2023-04-07T17:35:12.635Z,75.46
2023-04-07T17:37:39.512Z,75.39
2023-04-07T17:40:07.119Z,76.38
2023-04-07T17:42:33.928Z,76.88
2023-04-07T17:45:00.752Z,76.28
2023-04-07T17:47:27.617Z,77.31
2023-04-07T17:49:54.552Z,77.29
2023-04-07T17:52:21.678Z,76.95
2023-04-07T17:54:48.538Z,78.03
2023-04-07T17:57:16.046Z,77.89
2023-04-07T17:59:42.976Z,77.35
2023-04-07T18:02:10.578Z,77.91
2023-04-07T18:04:38.096Z,79.01
2023-04-07T18:07:05.200Z,79.08
2023-04-07T18:09:33.082Z,78.18
2023-04-07T18:12:01.669Z,78.81
2023-04-07T18:14:28.788Z,78.49
2023-04-07T18:16:56.164Z,79.09
2023-04-07T18:19:23.171Z,78.75
2023-04-07T18:21:52.967Z,79.10
2023-04-07T18:24:21.032Z,79.20
2023-04-07T18:26:48.058Z,79.45
2023-04-07T18:29:15.081Z,79.11
2023-04-07T18:31:45.174Z,79.40
2023-04-07T18:34:12.385Z,79.61
2023-04-07T18:36:41.260Z,80.14
2023-04-07T18:39:08.145Z,80.22
2023-04-07T18:41:35.464Z,80.87
2023-04-07T18:44:02.403Z,81.80
2023-04-07T18:46:29.255Z,82.65
2023-04-07T18:48:56.173Z,82.00
2023-04-07T18:51:23.167Z,81.41
2023-04-07T18:53:50.246Z,81.85
2023-04-07T18:56:17.207Z,82.29
2023-04-07T18:58:45.185Z,81.97
2023-04-07T19:01:13.334Z,82.33
2023-04-07T19:03:40.982Z,82.88
2023-04-07T19:06:08.233Z,84.06
2023-04-07T19:08:36.104Z,84.64
2023-04-07T19:11:03.051Z,84.64
2023-04-07T19:13:29.881Z,84.99
2023-04-07T19:15:56.761Z,84.73
2023-04-07T19:18:24.038Z,85.04
2023-04-07T19:20:51.294Z,86.73
2023-04-07T19:23:18.313Z,85.83
2023-04-07T19:25:45.855Z,85.88
2023-04-07T19:28:13.407Z,86.88
2023-04-07T19:30:40.542Z,87.39
2023-04-07T19:33:07.574Z,87.51
2023-04-07T19:35:34.718Z,89.01
2023-04-07T19:38:02.530Z,87.98
2023-04-07T19:40:31.450Z,88.22
2023-04-07T19:42:58.368Z,88.21
2023-04-07T19:45:25.479Z,89.17
2023-04-07T19:47:52.691Z,87.51
2023-04-07T19:50:20.066Z,89.96
2023-04-07T19:52:47.529Z,89.64
2023-04-07T19:55:14.504Z,88.89
2023-04-07T19:57:41.375Z,90.05
